ハノーファー の空港の天気 - METARとTAF

ハノーファー空港 ( EDDV / HAJ ) - ドイツ ハノーファー
飛行場実況気象(Metar)
観測時間09/25 22:20 CEST (09/25 20:20 UTC)
風向・風速不定 1m/s
視程10km以上
天気現象弱い雨
全天の4割程度の雲 雲底高度 1070m
気温11℃
湿度87%
気圧1010hPa
METAREDDV 252020Z AUTO VRB02KT 9999 -RA SCT035 11/09 Q1010 NOSIG
過去の天気等 Google飛行場航空写真 Wunderground天気予報

過去48時間のMETAR

飛行場予報(TAF)
発表時間: 9/25 19:00 CEST (9/25 17:00 UTC)
予報対象時間: 25日20時 CEST ~ 26日20時 CEST
風向・風速西北西 2m/s
視程10km以上
なし
26日3時 CEST ~ 26日5時 CEST に徐々に
風向・風速南南西 3m/s
26日8時 CEST ~ 26日10時 CEST に徐々に
風向・風速南南西 5m/s
26日16時 CEST ~ 26日20時 CEST に 確率 30% で一時的に
天気現象
TAF EDDV 251700Z 2518/2618 30004KT CAVOK
BECMG 2601/2603 21005KT
BECMG 2606/2608 20010KT
PROB30 TEMPO 2614/2618 RA